sensor_id;sensor_type;location;lat;lon;timestamp;pressure;altitude;pressure_sealevel;temperature;humidity
29239;BME280;16267;48.194;11.546;2023-03-04T00:00:30;96319.03;;;3.20;79.01
29239;BME280;16267;48.194;11.546;2023-03-04T00:02:56;96325.44;;;3.19;78.79
29239;BME280;16267;48.194;11.546;2023-03-04T00:05:22;96324.69;;;3.18;78.65
29239;BME280;16267;48.194;11.546;2023-03-04T00:07:48;96324.28;;;3.16;78.46
29239;BME280;16267;48.194;11.546;2023-03-04T00:10:13;96321.19;;;3.14;78.16
29239;BME280;16267;48.194;11.546;2023-03-04T00:12:39;96322.19;;;3.09;77.85
29239;BME280;16267;48.194;11.546;2023-03-04T00:15:06;96318.78;;;3.09;78.05
29239;BME280;16267;48.194;11.546;2023-03-04T00:17:32;96324.41;;;3.07;78.51
29239;BME280;16267;48.194;11.546;2023-03-04T00:19:58;96314.50;;;3.04;78.26
29239;BME280;16267;48.194;11.546;2023-03-04T00:22:23;96327.34;;;3.02;78.04
29239;BME280;16267;48.194;11.546;2023-03-04T00:24:49;96327.69;;;3.01;78.65
29239;BME280;16267;48.194;11.546;2023-03-04T00:27:15;96323.50;;;3.00;78.32
29239;BME280;16267;48.194;11.546;2023-03-04T00:29:41;96322.28;;;2.97;78.07
29239;BME280;16267;48.194;11.546;2023-03-04T00:32:06;96327.94;;;2.96;78.29
29239;BME280;16267;48.194;11.546;2023-03-04T00:34:32;96324.84;;;2.94;78.18
29239;BME280;16267;48.194;11.546;2023-03-04T00:36:58;96331.28;;;2.93;77.80
29239;BME280;16267;48.194;11.546;2023-03-04T00:39:29;96329.75;;;2.92;77.93
29239;BME280;16267;48.194;11.546;2023-03-04T00:41:55;96326.66;;;2.89;78.10
29239;BME280;16267;48.194;11.546;2023-03-04T00:44:21;96324.31;;;2.88;77.74
29239;BME280;16267;48.194;11.546;2023-03-04T00:46:46;96330.31;;;2.85;78.24
29239;BME280;16267;48.194;11.546;2023-03-04T00:49:12;96338.63;;;2.83;78.35
29239;BME280;16267;48.194;11.546;2023-03-04T00:51:38;96332.88;;;2.81;78.63
29239;BME280;16267;48.194;11.546;2023-03-04T00:54:03;96337.06;;;2.82;78.23
29239;BME280;16267;48.194;11.546;2023-03-04T00:56:29;96335.88;;;2.80;78.49
29239;BME280;16267;48.194;11.546;2023-03-04T00:58:55;96339.63;;;2.79;78.74
29239;BME280;16267;48.194;11.546;2023-03-04T01:01:21;96319.88;;;2.76;78.56
29239;BME280;16267;48.194;11.546;2023-03-04T01:03:47;96324.41;;;2.76;78.47
29239;BME280;16267;48.194;11.546;2023-03-04T01:06:13;96317.59;;;2.75;78.31
29239;BME280;16267;48.194;11.546;2023-03-04T01:08:39;96314.50;;;2.73;78.18
29239;BME280;16267;48.194;11.546;2023-03-04T01:11:05;96309.88;;;2.70;78.56
29239;BME280;16267;48.194;11.546;2023-03-04T01:13:32;96315.50;;;2.68;79.08
29239;BME280;16267;48.194;11.546;2023-03-04T01:15:57;96314.31;;;2.65;79.08
29239;BME280;16267;48.194;11.546;2023-03-04T01:18:23;96307.47;;;2.64;78.64
29239;BME280;16267;48.194;11.546;2023-03-04T01:20:50;96314.66;;;2.64;78.58
29239;BME280;16267;48.194;11.546;2023-03-04T01:23:16;96307.03;;;2.62;78.49
29239;BME280;16267;48.194;11.546;2023-03-04T01:25:42;96300.88;;;2.58;78.91
29239;BME280;16267;48.194;11.546;2023-03-04T01:28:07;96310.28;;;2.56;79.04
29239;BME280;16267;48.194;11.546;2023-03-04T01:30:33;96301.91;;;2.54;79.29
29239;BME280;16267;48.194;11.546;2023-03-04T01:32:59;96301.13;;;2.53;79.18
29239;BME280;16267;48.194;11.546;2023-03-04T01:35:25;96298.81;;;2.52;79.07
29239;BME280;16267;48.194;11.546;2023-03-04T01:37:50;96297.28;;;2.51;79.12
29239;BME280;16267;48.194;11.546;2023-03-04T01:40:16;96293.00;;;2.46;79.41
29239;BME280;16267;48.194;11.546;2023-03-04T01:42:43;96293.75;;;2.46;79.70
29239;BME280;16267;48.194;11.546;2023-03-04T01:45:17;96290.59;;;2.41;80.04
29239;BME280;16267;48.194;11.546;2023-03-04T01:47:46;96288.28;;;2.39;80.38
29239;BME280;16267;48.194;11.546;2023-03-04T01:50:32;96286.31;;;2.36;80.28
29239;BME280;16267;48.194;11.546;2023-03-04T01:52:59;96288.84;;;2.33;81.54
29239;BME280;16267;48.194;11.546;2023-03-04T01:55:26;96289.13;;;2.28;81.69
29239;BME280;16267;48.194;11.546;2023-03-04T01:57:53;96280.06;;;2.29;81.66
29239;BME280;16267;48.194;11.546;2023-03-04T02:00:31;96278.09;;;2.26;81.58
29239;BME280;16267;48.194;11.546;2023-03-04T02:03:19;96280.72;;;2.26;81.74
29239;BME280;16267;48.194;11.546;2023-03-04T02:05:49;96274.31;;;2.27;81.80
29239;BME280;16267;48.194;11.546;2023-03-04T02:08:19;96268.25;;;2.26;81.59
29239;BME280;16267;48.194;11.546;2023-03-04T02:10:46;96268.25;;;2.26;80.92
29239;BME280;16267;48.194;11.546;2023-03-04T02:13:13;96268.25;;;2.26;80.73
29239;BME280;16267;48.194;11.546;2023-03-04T02:15:41;96260.66;;;2.25;80.67
29239;BME280;16267;48.194;11.546;2023-03-04T02:18:22;96259.09;;;2.23;80.79
29239;BME280;16267;48.194;11.546;2023-03-04T02:26:30;96259.78;;;2.20;80.41
29239;BME280;16267;48.194;11.546;2023-03-04T02:28:58;96263.56;;;2.19;80.58
29239;BME280;16267;48.194;11.546;2023-03-04T02:31:39;96251.00;;;2.16;80.41
29239;BME280;16267;48.194;11.546;2023-03-04T02:36:37;96259.59;;;2.13;81.03
29239;BME280;16267;48.194;11.546;2023-03-04T02:41:47;96255.31;;;2.09;80.94
29239;BME280;16267;48.194;11.546;2023-03-04T02:44:20;96253.78;;;2.08;81.15
29239;BME280;16267;48.194;11.546;2023-03-04T02:46:48;96255.66;;;2.07;80.94
29239;BME280;16267;48.194;11.546;2023-03-04T02:49:15;96262.81;;;2.07;80.57
29239;BME280;16267;48.194;11.546;2023-03-04T02:51:41;96264.72;;;2.06;80.61
29239;BME280;16267;48.194;11.546;2023-03-04T02:54:20;96264.72;;;2.06;80.20
29239;BME280;16267;48.194;11.546;2023-03-04T02:56:52;96257.09;;;2.05;80.26
29239;BME280;16267;48.194;11.546;2023-03-04T02:59:19;96257.44;;;2.03;80.67
29239;BME280;16267;48.194;11.546;2023-03-04T03:01:45;96261.97;;;2.03;80.39
29239;BME280;16267;48.194;11.546;2023-03-04T03:04:12;96254.78;;;2.03;80.29
29239;BME280;16267;48.194;11.546;2023-03-04T03:06:38;96261.19;;;2.02;80.11
29239;BME280;16267;48.194;11.546;2023-03-04T03:09:05;96255.88;;;2.02;80.01
29239;BME280;16267;48.194;11.546;2023-03-04T03:11:31;96260.41;;;2.01;80.08
29239;BME280;16267;48.194;11.546;2023-03-04T03:13:57;96263.84;;;2.02;79.84
29239;BME280;16267;48.194;11.546;2023-03-04T03:16:23;96261.53;;;2.00;79.55
29239;BME280;16267;48.194;11.546;2023-03-04T03:18:48;96261.09;;;1.98;79.75
29239;BME280;16267;48.194;11.546;2023-03-04T03:21:14;96262.63;;;1.99;79.97
29239;BME280;16267;48.194;11.546;2023-03-04T03:23:40;96264.84;;;1.97;79.43
29239;BME280;16267;48.194;11.546;2023-03-04T03:26:06;96264.75;;;1.94;79.64
29239;BME280;16267;48.194;11.546;2023-03-04T03:28:32;96264.31;;;1.92;80.07
29239;BME280;16267;48.194;11.546;2023-03-04T03:30:57;96263.56;;;1.91;79.84
29239;BME280;16267;48.194;11.546;2023-03-04T03:33:23;96263.13;;;1.89;80.11
29239;BME280;16267;48.194;11.546;2023-03-04T03:35:49;96263.88;;;1.90;79.79
29239;BME280;16267;48.194;11.546;2023-03-04T03:38:14;96258.91;;;1.88;79.84
29239;BME280;16267;48.194;11.546;2023-03-04T03:40:40;96257.38;;;1.87;79.71
29239;BME280;16267;48.194;11.546;2023-03-04T03:43:06;96258.16;;;1.88;79.54
29239;BME280;16267;48.194;11.546;2023-03-04T03:45:32;96249.78;;;1.86;79.64
29239;BME280;16267;48.194;11.546;2023-03-04T03:47:57;96263.00;;;1.86;79.51
29239;BME280;16267;48.194;11.546;2023-03-04T03:50:23;96258.81;;;1.85;79.09
29239;BME280;16267;48.194;11.546;2023-03-04T03:52:49;96263.69;;;1.83;78.92
29239;BME280;16267;48.194;11.546;2023-03-04T03:55:15;96254.53;;;1.80;79.23
29239;BME280;16267;48.194;11.546;2023-03-04T03:57:41;96256.75;;;1.78;79.22
29239;BME280;16267;48.194;11.546;2023-03-04T04:00:08;96255.56;;;1.75;79.80
29239;BME280;16267;48.194;11.546;2023-03-04T04:02:34;96253.91;;;1.71;79.46
29239;BME280;16267;48.194;11.546;2023-03-04T04:05:00;96248.16;;;1.69;79.88
29239;BME280;16267;48.194;11.546;2023-03-04T04:07:25;96255.34;;;1.68;80.09
29239;BME280;16267;48.194;11.546;2023-03-04T04:09:51;96249.28;;;1.68;79.70
29239;BME280;16267;48.194;11.546;2023-03-04T04:12:18;96253.72;;;1.64;79.09
29239;BME280;16267;48.194;11.546;2023-03-04T04:14:44;96250.63;;;1.62;79.97
29239;BME280;16267;48.194;11.546;2023-03-04T04:17:10;96246.09;;;1.62;79.95
29239;BME280;16267;48.194;11.546;2023-03-04T04:19:39;96249.88;;;1.61;79.98
29239;BME280;16267;48.194;11.546;2023-03-04T04:22:06;96258.91;;;1.60;79.90
29239;BME280;16267;48.194;11.546;2023-03-04T04:24:33;96254.72;;;1.59;79.79
29239;BME280;16267;48.194;11.546;2023-03-04T04:27:00;96250.19;;;1.60;79.99
29239;BME280;16267;48.194;11.546;2023-03-04T04:29:26;96255.84;;;1.58;79.68
29239;BME280;16267;48.194;11.546;2023-03-04T04:31:51;96256.91;;;1.57;79.48
29239;BME280;16267;48.194;11.546;2023-03-04T04:34:17;96258.81;;;1.56;79.75
29239;BME280;16267;48.194;11.546;2023-03-04T04:36:43;96256.47;;;1.55;79.81
29239;BME280;16267;48.194;11.546;2023-03-04T04:39:09;96252.31;;;1.54;79.16
29239;BME280;16267;48.194;11.546;2023-03-04T04:41:41;96261.34;;;1.53;79.21
29239;BME280;16267;48.194;11.546;2023-03-04T04:44:08;96250.31;;;1.51;78.86
29239;BME280;16267;48.194;11.546;2023-03-04T04:46:36;96255.16;;;1.49;78.81
29239;BME280;16267;48.194;11.546;2023-03-04T04:49:03;96254.31;;;1.45;79.24
29239;BME280;16267;48.194;11.546;2023-03-04T04:51:29;96249.34;;;1.43;79.19
29239;BME280;16267;48.194;11.546;2023-03-04T04:53:55;96251.00;;;1.36;77.84
29239;BME280;16267;48.194;11.546;2023-03-04T04:56:23;96252.56;;;1.37;79.84
29239;BME280;16267;48.194;11.546;2023-03-04T04:58:55;96251.34;;;1.34;80.44
29239;BME280;16267;48.194;11.546;2023-03-04T05:01:22;96253.22;;;1.33;80.25
29239;BME280;16267;48.194;11.546;2023-03-04T05:03:48;96250.03;;;1.28;80.40
29239;BME280;16267;48.194;11.546;2023-03-04T05:06:23;96249.91;;;1.24;80.23
29239;BME280;16267;48.194;11.546;2023-03-04T05:08:50;96258.09;;;1.19;81.97
29239;BME280;16267;48.194;11.546;2023-03-04T05:11:17;96251.47;;;1.13;80.89
29239;BME280;16267;48.194;11.546;2023-03-04T05:13:45;96255.22;;;1.00;85.31
29239;BME280;16267;48.194;11.546;2023-03-04T05:16:11;96259.19;;;1.06;84.70
29239;BME280;16267;48.194;11.546;2023-03-04T05:18:39;96258.44;;;1.05;84.43
29239;BME280;16267;48.194;11.546;2023-03-04T05:21:05;96259.63;;;1.08;83.92
29239;BME280;16267;48.194;11.546;2023-03-04T05:23:37;96263.06;;;1.08;83.19
29239;BME280;16267;48.194;11.546;2023-03-04T05:26:05;96260.06;;;1.10;82.50
29239;BME280;16267;48.194;11.546;2023-03-04T05:28:31;96256.34;;;1.11;82.93
29239;BME280;16267;48.194;11.546;2023-03-04T05:30:57;96258.19;;;1.10;82.91
29239;BME280;16267;48.194;11.546;2023-03-04T05:33:23;96254.34;;;1.08;82.20
29239;BME280;16267;48.194;11.546;2023-03-04T05:35:49;96251.69;;;1.08;82.65
29239;BME280;16267;48.194;11.546;2023-03-04T05:38:17;96257.31;;;1.06;82.70
29239;BME280;16267;48.194;11.546;2023-03-04T05:40:45;96257.31;;;1.06;82.12
29239;BME280;16267;48.194;11.546;2023-03-04T05:43:11;96259.97;;;1.06;82.32
29239;BME280;16267;48.194;11.546;2023-03-04T05:45:38;96258.09;;;1.07;82.04
29239;BME280;16267;48.194;11.546;2023-03-04T05:48:05;96264.91;;;1.08;81.75
29239;BME280;16267;48.194;11.546;2023-03-04T05:50:31;96255.13;;;1.08;81.56
29239;BME280;16267;48.194;11.546;2023-03-04T05:52:57;96261.94;;;1.09;81.50
29239;BME280;16267;48.194;11.546;2023-03-04T05:55:23;96268.34;;;1.08;81.41
29239;BME280;16267;48.194;11.546;2023-03-04T05:57:49;96265.25;;;1.06;81.08
29239;BME280;16267;48.194;11.546;2023-03-04T06:00:16;96270.19;;;1.08;81.35
29239;BME280;16267;48.194;11.546;2023-03-04T06:02:42;96278.47;;;1.06;81.52
29239;BME280;16267;48.194;11.546;2023-03-04T06:05:12;96276.16;;;1.05;81.97
29239;BME280;16267;48.194;11.546;2023-03-04T06:07:38;96276.81;;;1.02;81.57
29239;BME280;16267;48.194;11.546;2023-03-04T06:10:05;96277.56;;;1.02;81.83
29239;BME280;16267;48.194;11.546;2023-03-04T06:12:31;96286.63;;;1.01;82.22
29239;BME280;16267;48.194;11.546;2023-03-04T06:14:57;96283.53;;;0.99;82.24
29239;BME280;16267;48.194;11.546;2023-03-04T06:17:22;96283.53;;;0.99;82.53
29239;BME280;16267;48.194;11.546;2023-03-04T06:19:48;96288.03;;;0.99;81.67
29239;BME280;16267;48.194;11.546;2023-03-04T06:22:14;96291.47;;;0.99;83.05
29239;BME280;16267;48.194;11.546;2023-03-04T06:24:39;96281.34;;;1.01;82.83
29239;BME280;16267;48.194;11.546;2023-03-04T06:27:06;96281.22;;;0.98;81.21
29239;BME280;16267;48.194;11.546;2023-03-04T06:29:32;96297.19;;;1.01;83.47
29239;BME280;16267;48.194;11.546;2023-03-04T06:31:57;96292.66;;;1.02;83.11
29239;BME280;16267;48.194;11.546;2023-03-04T06:34:23;96301.81;;;1.04;83.98
29239;BME280;16267;48.194;11.546;2023-03-04T06:36:49;96297.63;;;1.03;82.19
29239;BME280;16267;48.194;11.546;2023-03-04T06:39:15;96306.75;;;0.94;84.84
29239;BME280;16267;48.194;11.546;2023-03-04T06:41:41;96302.69;;;0.96;86.15
29239;BME280;16267;48.194;11.546;2023-03-04T06:44:07;96305.69;;;0.95;87.33
29239;BME280;16267;48.194;11.546;2023-03-04T06:46:34;96308.88;;;1.00;86.77
29239;BME280;16267;48.194;11.546;2023-03-04T06:48:59;96309.75;;;1.04;86.83
29239;BME280;16267;48.194;11.546;2023-03-04T06:51:26;96309.75;;;1.04;85.63
29239;BME280;16267;48.194;11.546;2023-03-04T06:53:52;96300.94;;;1.00;87.70
29239;BME280;16267;48.194;11.546;2023-03-04T06:56:18;96313.06;;;1.01;88.27
29239;BME280;16267;48.194;11.546;2023-03-04T06:58:45;96318.22;;;1.10;88.57
29239;BME280;16267;48.194;11.546;2023-03-04T07:01:26;96318.13;;;1.19;88.52
29239;BME280;16267;48.194;11.546;2023-03-04T07:03:53;96325.06;;;1.23;87.57
29239;BME280;16267;48.194;11.546;2023-03-04T07:06:23;96311.19;;;1.26;88.30
29239;BME280;16267;48.194;11.546;2023-03-04T07:08:50;96320.34;;;1.29;88.83
29239;BME280;16267;48.194;11.546;2023-03-04T07:11:17;96313.94;;;1.30;89.61
29239;BME280;16267;48.194;11.546;2023-03-04T07:13:43;96313.72;;;1.35;89.62
29239;BME280;16267;48.194;11.546;2023-03-04T07:16:16;96311.59;;;1.41;90.32
29239;BME280;16267;48.194;11.546;2023-03-04T07:18:44;96317.03;;;1.44;90.11
29239;BME280;16267;48.194;11.546;2023-03-04T07:21:10;96320.84;;;1.47;90.46
29239;BME280;16267;48.194;11.546;2023-03-04T07:23:37;96313.25;;;1.58;90.48
29239;BME280;16267;48.194;11.546;2023-03-04T07:26:04;96316.09;;;1.65;90.31
29239;BME280;16267;48.194;11.546;2023-03-04T07:28:30;96328.00;;;1.71;90.23
29239;BME280;16267;48.194;11.546;2023-03-04T07:30:56;96333.59;;;1.82;90.14
29239;BME280;16267;48.194;11.546;2023-03-04T07:33:22;96330.06;;;1.90;89.85
29239;BME280;16267;48.194;11.546;2023-03-04T07:35:47;96333.03;;;2.00;90.36
29239;BME280;16267;48.194;11.546;2023-03-04T07:38:13;96331.47;;;1.99;88.57
29239;BME280;16267;48.194;11.546;2023-03-04T07:40:39;96332.88;;;2.09;88.91
29239;BME280;16267;48.194;11.546;2023-03-04T07:43:05;96347.84;;;2.17;88.40
29239;BME280;16267;48.194;11.546;2023-03-04T07:45:30;96344.22;;;2.22;87.21
29239;BME280;16267;48.194;11.546;2023-03-04T07:47:59;96344.06;;;2.31;88.48
29239;BME280;16267;48.194;11.546;2023-03-04T07:50:25;96348.00;;;2.37;87.35
29239;BME280;16267;48.194;11.546;2023-03-04T07:52:51;96351.88;;;2.39;87.04
29239;BME280;16267;48.194;11.546;2023-03-04T07:55:17;96357.59;;;2.41;87.64
29239;BME280;16267;48.194;11.546;2023-03-04T07:57:46;96362.31;;;2.48;86.47
29239;BME280;16267;48.194;11.546;2023-03-04T08:00:15;96358.06;;;2.59;87.67
29239;BME280;16267;48.194;11.546;2023-03-04T08:02:41;96357.22;;;2.55;84.42
29239;BME280;16267;48.194;11.546;2023-03-04T08:05:08;96364.34;;;2.39;85.36
29239;BME280;16267;48.194;11.546;2023-03-04T08:07:34;96363.59;;;2.54;86.49
29239;BME280;16267;48.194;11.546;2023-03-04T08:09:59;96369.03;;;2.58;85.86
29239;BME280;16267;48.194;11.546;2023-03-04T08:12:26;96371.28;;;2.72;85.75
29239;BME280;16267;48.194;11.546;2023-03-04T08:14:52;96368.94;;;2.70;85.45
29239;BME280;16267;48.194;11.546;2023-03-04T08:17:18;96355.53;;;2.79;84.65
29239;BME280;16267;48.194;11.546;2023-03-04T08:19:44;96362.38;;;2.80;84.37
29239;BME280;16267;48.194;11.546;2023-03-04T08:22:10;96371.47;;;2.95;86.05
29239;BME280;16267;48.194;11.546;2023-03-04T08:24:36;96356.69;;;3.09;86.05
29239;BME280;16267;48.194;11.546;2023-03-04T08:27:02;96362.69;;;3.22;84.22
29239;BME280;16267;48.194;11.546;2023-03-04T08:29:28;96364.97;;;3.24;81.71
29239;BME280;16267;48.194;11.546;2023-03-04T08:31:54;96365.09;;;3.27;80.39
29239;BME280;16267;48.194;11.546;2023-03-04T08:34:25;96364.66;;;3.25;79.14
29239;BME280;16267;48.194;11.546;2023-03-04T08:36:51;96369.44;;;3.35;80.11
29239;BME280;16267;48.194;11.546;2023-03-04T08:39:17;96368.22;;;3.49;79.57
29239;BME280;16267;48.194;11.546;2023-03-04T08:41:44;96367.78;;;3.63;80.90
29239;BME280;16267;48.194;11.546;2023-03-04T08:44:10;96364.53;;;3.69;78.59
29239;BME280;16267;48.194;11.546;2023-03-04T08:46:38;96363.31;;;3.83;79.70
29239;BME280;16267;48.194;11.546;2023-03-04T08:49:05;96367.06;;;3.82;78.92
29239;BME280;16267;48.194;11.546;2023-03-04T08:51:31;96367.03;;;3.97;80.68
29239;BME280;16267;48.194;11.546;2023-03-04T08:54:03;96363.91;;;4.11;78.87
29239;BME280;16267;48.194;11.546;2023-03-04T08:56:30;96354.09;;;4.15;78.04
29239;BME280;16267;48.194;11.546;2023-03-04T08:58:55;96359.13;;;4.01;76.60
29239;BME280;16267;48.194;11.546;2023-03-04T09:01:22;96357.81;;;3.75;76.88
29239;BME280;16267;48.194;11.546;2023-03-04T09:03:47;96356.09;;;3.83;77.90
29239;BME280;16267;48.194;11.546;2023-03-04T09:06:15;96349.59;;;3.80;77.47
29239;BME280;16267;48.194;11.546;2023-03-04T09:08:42;96351.09;;;3.97;77.72
29239;BME280;16267;48.194;11.546;2023-03-04T09:11:08;96351.66;;;3.71;76.14
29239;BME280;16267;48.194;11.546;2023-03-04T09:13:35;96352.56;;;3.95;76.33
29239;BME280;16267;48.194;11.546;2023-03-04T09:16:01;96351.78;;;3.94;76.60
29239;BME280;16267;48.194;11.546;2023-03-04T09:18:27;96343.78;;;4.10;77.57
29239;BME280;16267;48.194;11.546;2023-03-04T09:20:53;96345.25;;;4.27;77.32
29239;BME280;16267;48.194;11.546;2023-03-04T09:23:20;96353.28;;;4.50;79.11
29239;BME280;16267;48.194;11.546;2023-03-04T09:25:46;96348.66;;;4.66;77.03
29239;BME280;16267;48.194;11.546;2023-03-04T09:28:15;96342.88;;;4.84;77.57
29239;BME280;16267;48.194;11.546;2023-03-04T09:30:40;96347.25;;;4.96;75.43
29239;BME280;16267;48.194;11.546;2023-03-04T09:33:06;96354.22;;;5.04;74.27
29239;BME280;16267;48.194;11.546;2023-03-04T09:35:32;96353.69;;;5.18;75.62
29239;BME280;16267;48.194;11.546;2023-03-04T09:37:58;96347.81;;;5.05;71.09
29239;BME280;16267;48.194;11.546;2023-03-04T09:40:32;96354.22;;;5.04;72.09
29239;BME280;16267;48.194;11.546;2023-03-04T09:43:03;96345.00;;;5.21;72.38
29239;BME280;16267;48.194;11.546;2023-03-04T09:45:45;96339.13;;;5.34;71.05
29239;BME280;16267;48.194;11.546;2023-03-04T09:48:18;96344.69;;;5.49;71.36
29239;BME280;16267;48.194;11.546;2023-03-04T09:51:39;96335.78;;;5.64;71.33
29239;BME280;16267;48.194;11.546;2023-03-04T09:54:23;96340.84;;;5.73;69.83
29239;BME280;16267;48.194;11.546;2023-03-04T09:57:14;96342.59;;;5.88;70.26
29239;BME280;16267;48.194;11.546;2023-03-04T10:00:00;96331.31;;;5.98;68.90
29239;BME280;16267;48.194;11.546;2023-03-04T10:03:07;96334.13;;;6.09;68.13
29239;BME280;16267;48.194;11.546;2023-03-04T10:05:45;96328.78;;;6.09;67.68
29239;BME280;16267;48.194;11.546;2023-03-04T10:09:06;96326.28;;;6.23;68.48
29239;BME280;16267;48.194;11.546;2023-03-04T10:11:47;96326.63;;;6.18;63.05
29239;BME280;16267;48.194;11.546;2023-03-04T10:14:30;96323.13;;;6.44;65.57
29239;BME280;16267;48.194;11.546;2023-03-04T10:17:15;96329.88;;;6.68;64.64
29239;BME280;16267;48.194;11.546;2023-03-04T10:20:12;96318.75;;;7.04;65.16
29239;BME280;16267;48.194;11.546;2023-03-04T10:22:58;96308.94;;;7.15;63.11
29239;BME280;16267;48.194;11.546;2023-03-04T10:25:31;96313.31;;;7.41;63.74
29239;BME280;16267;48.194;11.546;2023-03-04T10:28:08;96309.97;;;7.51;60.50
29239;BME280;16267;48.194;11.546;2023-03-04T10:33:24;96309.38;;;7.83;62.53
29239;BME280;16267;48.194;11.546;2023-03-04T10:39:10;96305.97;;;7.90;59.28
29239;BME280;16267;48.194;11.546;2023-03-04T10:41:42;96299.56;;;8.01;60.69
29239;BME280;16267;48.194;11.546;2023-03-04T10:46:44;96299.97;;;8.11;59.81
29239;BME280;16267;48.194;11.546;2023-03-04T10:49:13;96297.75;;;8.23;59.80
29239;BME280;16267;48.194;11.546;2023-03-04T10:51:46;96286.25;;;8.19;57.02
29239;BME280;16267;48.194;11.546;2023-03-04T10:57:12;96295.91;;;8.42;58.65
29239;BME280;16267;48.194;11.546;2023-03-04T11:02:33;96294.03;;;8.53;58.01
29239;BME280;16267;48.194;11.546;2023-03-04T11:07:54;96290.59;;;8.53;54.96
29239;BME280;16267;48.194;11.546;2023-03-04T11:10:24;96288.69;;;8.49;53.70
29239;BME280;16267;48.194;11.546;2023-03-04T11:15:51;96288.69;;;8.46;55.49
29239;BME280;16267;48.194;11.546;2023-03-04T11:18:45;96283.72;;;8.48;54.57
29239;BME280;16267;48.194;11.546;2023-03-04T11:21:28;96274.56;;;8.78;55.81
29239;BME280;16267;48.194;11.546;2023-03-04T11:27:35;96283.69;;;8.41;52.68
29239;BME280;16267;48.194;11.546;2023-03-04T11:30:24;96271.53;;;8.97;54.96
29239;BME280;16267;48.194;11.546;2023-03-04T11:32:55;96279.19;;;9.24;53.06
29239;BME280;16267;48.194;11.546;2023-03-04T11:35:44;96278.06;;;9.21;50.86
29239;BME280;16267;48.194;11.546;2023-03-04T11:38:19;96271.50;;;9.47;52.18
29239;BME280;16267;48.194;11.546;2023-03-04T11:41:15;96261.09;;;9.78;50.77
29239;BME280;16267;48.194;11.546;2023-03-04T11:43:45;96261.94;;;9.53;50.24
29239;BME280;16267;48.194;11.546;2023-03-04T11:57:58;96251.94;;;9.68;50.83
29239;BME280;16267;48.194;11.546;2023-03-04T12:09:13;96243.19;;;9.46;52.53
29239;BME280;16267;48.194;11.546;2023-03-04T12:11:59;96235.94;;;9.43;51.95
29239;BME280;16267;48.194;11.546;2023-03-04T12:26:45;96226.00;;;9.33;52.82
29239;BME280;16267;48.194;11.546;2023-03-04T12:32:24;96216.84;;;9.05;52.62
29239;BME280;16267;48.194;11.546;2023-03-04T12:35:07;96223.75;;;8.99;53.83
29239;BME280;16267;48.194;11.546;2023-03-04T12:38:20;96217.22;;;9.07;54.24
29239;BME280;16267;48.194;11.546;2023-03-04T12:41:26;96215.31;;;9.15;54.63
29239;BME280;16267;48.194;11.546;2023-03-04T12:44:18;96216.06;;;9.19;54.36
29239;BME280;16267;48.194;11.546;2023-03-04T12:53:38;96209.59;;;8.74;53.60
29239;BME280;16267;48.194;11.546;2023-03-04T12:56:15;96209.22;;;8.82;54.50
29239;BME280;16267;48.194;11.546;2023-03-04T12:58:43;96205.41;;;8.87;54.54
29239;BME280;16267;48.194;11.546;2023-03-04T13:01:38;96194.69;;;8.80;54.35
29239;BME280;16267;48.194;11.546;2023-03-04T13:04:34;96204.63;;;8.83;54.10
29239;BME280;16267;48.194;11.546;2023-03-04T13:07:38;96199.66;;;8.70;54.04
29239;BME280;16267;48.194;11.546;2023-03-04T13:10:13;96192.38;;;8.78;54.78
29239;BME280;16267;48.194;11.546;2023-03-04T13:12:53;96188.56;;;8.76;54.65
29239;BME280;16267;48.194;11.546;2023-03-04T13:18:28;96192.00;;;8.65;54.03
29239;BME280;16267;48.194;11.546;2023-03-04T13:20:41;96189.34;;;8.62;54.12
29239;BME280;16267;48.194;11.546;2023-03-04T13:41:14;96174.38;;;8.29;55.57
29239;BME280;16267;48.194;11.546;2023-03-04T13:56:40;96164.81;;;8.20;55.80
29239;BME280;16267;48.194;11.546;2023-03-04T14:04:33;96168.56;;;7.98;56.06
29239;BME280;16267;48.194;11.546;2023-03-04T14:07:15;96167.03;;;7.97;55.61
29239;BME280;16267;48.194;11.546;2023-03-04T14:12:47;96167.75;;;7.79;55.59
29239;BME280;16267;48.194;11.546;2023-03-04T14:15:25;96169.66;;;7.82;56.10
29239;BME280;16267;48.194;11.546;2023-03-04T14:17:57;96166.59;;;7.77;55.88
29239;BME280;16267;48.194;11.546;2023-03-04T14:22:56;96169.28;;;7.73;55.77
29239;BME280;16267;48.194;11.546;2023-03-04T14:25:33;96163.88;;;7.66;55.91
29239;BME280;16267;48.194;11.546;2023-03-04T14:28:13;96159.28;;;7.63;55.51
29239;BME280;16267;48.194;11.546;2023-03-04T14:30:52;96163.09;;;7.58;55.85
29239;BME280;16267;48.194;11.546;2023-03-04T14:33:27;96160.78;;;7.53;55.71
29239;BME280;16267;48.194;11.546;2023-03-04T14:35:59;96157.72;;;7.51;56.18
29239;BME280;16267;48.194;11.546;2023-03-04T14:38:31;96166.09;;;7.50;56.48
29239;BME280;16267;48.194;11.546;2023-03-04T14:41:17;96168.00;;;7.46;55.77
29239;BME280;16267;48.194;11.546;2023-03-04T14:46:52;96161.78;;;7.24;55.80
29239;BME280;16267;48.194;11.546;2023-03-04T14:49:19;96166.72;;;7.22;55.98
29239;BME280;16267;48.194;11.546;2023-03-04T14:51:51;96162.13;;;7.15;55.91
29239;BME280;16267;48.194;11.546;2023-03-04T14:54:40;96161.69;;;7.06;55.91
29239;BME280;16267;48.194;11.546;2023-03-04T14:57:25;96164.69;;;7.01;56.25
29239;BME280;16267;48.194;11.546;2023-03-04T14:59:54;96162.75;;;6.94;56.31
29239;BME280;16267;48.194;11.546;2023-03-04T15:02:25;96163.84;;;6.89;56.49
29239;BME280;16267;48.194;11.546;2023-03-04T15:05:10;96160.34;;;6.78;56.27
29239;BME280;16267;48.194;11.546;2023-03-04T15:07:41;96156.91;;;6.78;56.40
29239;BME280;16267;48.194;11.546;2023-03-04T15:10:10;96155.00;;;6.75;56.66
29239;BME280;16267;48.194;11.546;2023-03-04T15:12:39;96156.50;;;6.72;56.82
29239;BME280;16267;48.194;11.546;2023-03-04T15:15:44;96145.81;;;6.68;57.02
29239;BME280;16267;48.194;11.546;2023-03-04T15:18:27;96143.81;;;6.58;55.78
29239;BME280;16267;48.194;11.546;2023-03-04T15:21:01;96150.31;;;6.57;56.71